Tower, Minnesota
Current Conditions -  °F | °C
As of 9:15 AM on Friday 19 Dec 2014 (Local Time) from KCQM Reporting Station
Light Snow Light Snow  
Wind Chill: 19°   Ceiling: 4700
Heat Index: 19°   Visibility: 10mi
Dew Point: 18°   Wind: 3mph
Humidity: 93%   Direction: 140°SE
Pressure: 30.19"   Gusts: NA
Location:  47.81°N, 92.27°W
Report Text: KCQM 191515Z AUTO 14003KT 10SM -SN SCT006 OVC047 M07/M08 A3019 RMK AO2
Loading
Personal Weather Stations






























Interactive Weather Map New forecast layout! Learn more

10-Day Weather Forecast

Advertisements
Track Severe Weather on mobile